createdAt,value
2022-12-31T00:01:40.067Z,94.29
2022-12-31T00:04:08.820Z,95.57
2022-12-31T00:06:37.717Z,95.88
2022-12-31T00:09:08.700Z,94.93
2022-12-31T00:11:38.044Z,94.74
2022-12-31T00:14:07.576Z,95.22
2022-12-31T00:16:40.629Z,95.79
2022-12-31T00:19:11.749Z,96.90
2022-12-31T00:21:40.592Z,96.32
2022-12-31T00:24:11.452Z,96.31
2022-12-31T00:26:40.309Z,96.00
2022-12-31T00:29:10.323Z,96.47
2022-12-31T00:31:39.399Z,97.84
2022-12-31T00:34:08.126Z,98.23
2022-12-31T00:36:39.846Z,99.73
2022-12-31T00:39:10.287Z,99.96
2022-12-31T00:41:39.322Z,99.95
2022-12-31T00:44:08.102Z,100.00
2022-12-31T00:49:04.699Z,99.16
2022-12-31T00:51:33.772Z,99.49
2022-12-31T00:54:02.442Z,99.92
2022-12-31T00:56:32.157Z,100.00
2022-12-31T00:59:01.156Z,99.57
2022-12-31T01:01:36.746Z,99.75
2022-12-31T01:04:16.918Z,99.97
2022-12-31T01:06:46.387Z,100.00
2022-12-31T01:09:17.070Z,100.00
2022-12-31T01:11:45.897Z,100.00
2022-12-31T01:14:19.051Z,100.00
2022-12-31T01:16:53.114Z,100.00
2022-12-31T01:19:29.177Z,100.00
2022-12-31T01:21:58.114Z,100.00
2022-12-31T01:24:26.986Z,100.00
2022-12-31T01:26:58.078Z,100.00
2022-12-31T01:29:27.810Z,100.00
2022-12-31T01:31:56.616Z,100.00
2022-12-31T01:34:25.502Z,100.00
2022-12-31T01:36:54.701Z,100.00
2022-12-31T01:39:23.503Z,99.99
2022-12-31T01:41:52.464Z,100.00
2022-12-31T01:44:27.150Z,100.00
2022-12-31T01:47:01.307Z,100.00
2022-12-31T01:49:41.508Z,100.00
2022-12-31T01:52:23.489Z,100.00
2022-12-31T01:55:05.505Z,100.00
2022-12-31T01:57:35.841Z,100.00
2022-12-31T02:00:07.045Z,100.00
2022-12-31T02:02:36.079Z,100.00
2022-12-31T02:05:16.690Z,100.00
2022-12-31T02:07:47.791Z,100.00
2022-12-31T02:10:16.781Z,100.00
2022-12-31T02:12:47.281Z,100.00
2022-12-31T02:15:16.912Z,100.00
2022-12-31T02:18:14.483Z,100.00
2022-12-31T02:21:30.778Z,100.00
2022-12-31T02:24:05.112Z,100.00
2022-12-31T02:26:56.724Z,100.00
2022-12-31T02:29:52.335Z,100.00
2022-12-31T02:33:05.866Z,100.00
2022-12-31T02:36:03.087Z,100.00
2022-12-31T02:38:36.188Z,100.00
2022-12-31T02:41:05.343Z,100.00
2022-12-31T02:43:34.078Z,100.00
2022-12-31T02:46:26.259Z,100.00
2022-12-31T02:49:26.847Z,100.00
2022-12-31T02:52:34.333Z,100.00
2022-12-31T02:55:24.463Z,100.00
2022-12-31T02:58:11.255Z,100.00
2022-12-31T03:01:05.796Z,100.00
2022-12-31T03:03:36.366Z,100.00
2022-12-31T03:06:08.197Z,100.00
2022-12-31T03:08:56.915Z,100.00
2022-12-31T03:11:44.224Z,100.00
2022-12-31T03:14:13.110Z,100.00
2022-12-31T03:16:41.865Z,100.00
2022-12-31T03:19:29.021Z,100.00
2022-12-31T03:22:16.389Z,100.00
2022-12-31T03:25:03.584Z,100.00
2022-12-31T03:27:32.317Z,100.00
2022-12-31T03:30:02.237Z,100.00
2022-12-31T03:32:30.979Z,100.00
2022-12-31T03:34:59.793Z,100.00
2022-12-31T03:37:28.634Z,100.00
2022-12-31T03:39:57.686Z,100.00
2022-12-31T03:42:26.489Z,100.00
2022-12-31T03:44:55.336Z,100.00
2022-12-31T03:47:24.104Z,100.00
2022-12-31T03:49:52.979Z,100.00
2022-12-31T03:52:22.131Z,100.00
2022-12-31T03:54:51.009Z,100.00
2022-12-31T03:57:19.872Z,100.00
2022-12-31T03:59:48.590Z,100.00
2022-12-31T04:02:17.494Z,100.00
2022-12-31T04:04:46.804Z,100.00
2022-12-31T04:07:15.632Z,100.00
2022-12-31T04:09:44.401Z,100.00
2022-12-31T04:12:13.223Z,100.00
2022-12-31T04:14:42.002Z,100.00
2022-12-31T04:17:10.844Z,100.00
2022-12-31T04:19:39.799Z,100.00
2022-12-31T04:22:09.147Z,100.00
2022-12-31T04:24:37.951Z,100.00
2022-12-31T04:27:08.073Z,100.00
2022-12-31T04:29:37.074Z,100.00
2022-12-31T04:32:07.640Z,100.00
2022-12-31T04:34:36.865Z,100.00
2022-12-31T04:37:05.617Z,100.00
2022-12-31T04:39:34.472Z,100.00
2022-12-31T04:42:03.408Z,100.00
2022-12-31T04:44:35.071Z,100.00
2022-12-31T04:47:03.969Z,100.00
2022-12-31T04:49:32.715Z,100.00
2022-12-31T04:52:01.497Z,100.00
2022-12-31T04:54:30.213Z,100.00
2022-12-31T04:56:59.025Z,100.00
2022-12-31T04:59:27.752Z,100.00
2022-12-31T05:01:56.702Z,100.00
2022-12-31T05:04:25.785Z,100.00
2022-12-31T05:06:54.613Z,100.00
2022-12-31T05:09:24.269Z,100.00
2022-12-31T05:11:53.191Z,100.00
2022-12-31T05:14:22.103Z,100.00
2022-12-31T05:16:51.114Z,100.00
2022-12-31T05:19:20.023Z,100.00
2022-12-31T05:22:08.815Z,100.00
2022-12-31T05:24:37.521Z,100.00
2022-12-31T05:27:06.290Z,100.00
2022-12-31T05:29:35.072Z,100.00
2022-12-31T05:32:03.830Z,100.00
2022-12-31T05:34:32.598Z,100.00
2022-12-31T05:37:01.456Z,100.00
2022-12-31T05:39:30.183Z,100.00
2022-12-31T05:41:59.041Z,100.00
2022-12-31T05:44:27.851Z,100.00
2022-12-31T05:46:56.702Z,100.00
2022-12-31T05:49:25.540Z,100.00
2022-12-31T05:51:54.271Z,100.00
2022-12-31T05:54:22.968Z,100.00
2022-12-31T05:56:51.980Z,100.00
2022-12-31T05:59:21.054Z,100.00
2022-12-31T06:01:49.830Z,100.00
2022-12-31T06:04:18.839Z,100.00
2022-12-31T06:06:47.819Z,100.00
2022-12-31T06:09:18.272Z,100.00
2022-12-31T06:11:48.070Z,100.00
2022-12-31T06:14:16.952Z,100.00
2022-12-31T06:16:45.764Z,100.00
2022-12-31T06:19:14.548Z,100.00
2022-12-31T06:21:43.393Z,100.00
2022-12-31T06:24:12.465Z,100.00
2022-12-31T06:26:41.542Z,100.00
2022-12-31T06:29:11.254Z,100.00
2022-12-31T06:31:39.971Z,100.00
2022-12-31T06:34:08.720Z,100.00
2022-12-31T06:36:37.520Z,100.00
2022-12-31T06:39:07.324Z,100.00
2022-12-31T06:41:36.552Z,100.00
2022-12-31T06:44:05.806Z,100.00
2022-12-31T06:46:34.620Z,100.00
2022-12-31T06:49:03.423Z,100.00
2022-12-31T06:51:32.230Z,100.00
2022-12-31T06:54:01.020Z,100.00
2022-12-31T06:56:34.363Z,100.00
2022-12-31T06:59:05.331Z,100.00
2022-12-31T07:01:49.760Z,100.00
2022-12-31T07:04:52.666Z,100.00
2022-12-31T07:07:41.432Z,100.00
2022-12-31T07:10:37.965Z,100.00
2022-12-31T07:13:33.838Z,100.00
2022-12-31T07:16:29.339Z,100.00
2022-12-31T07:19:25.333Z,100.00
2022-12-31T07:21:56.216Z,100.00
2022-12-31T07:24:25.603Z,100.00
2022-12-31T07:27:30.394Z,100.00
2022-12-31T07:30:09.938Z,100.00
2022-12-31T07:33:07.355Z,100.00
2022-12-31T07:36:06.250Z,100.00
2022-12-31T07:39:07.367Z,100.00
2022-12-31T07:42:03.797Z,100.00
2022-12-31T07:44:54.304Z,100.00
2022-12-31T07:47:27.378Z,100.00
2022-12-31T07:49:57.975Z,100.00
2022-12-31T07:52:27.495Z,100.00
2022-12-31T07:54:56.487Z,100.00
2022-12-31T07:57:36.420Z,100.00
2022-12-31T08:00:15.892Z,99.09
2022-12-31T08:03:18.874Z,99.18
2022-12-31T08:06:41.879Z,98.85
2022-12-31T08:09:58.423Z,98.83
2022-12-31T08:12:34.491Z,97.46
2022-12-31T08:15:12.457Z,96.89
2022-12-31T08:17:42.473Z,96.38
2022-12-31T08:20:16.784Z,95.64
2022-12-31T08:23:27.093Z,95.52
2022-12-31T08:26:33.376Z,94.32
2022-12-31T08:29:36.176Z,93.80
2022-12-31T08:32:51.231Z,93.68
2022-12-31T08:35:47.404Z,93.47
2022-12-31T08:38:43.741Z,92.38
2022-12-31T08:41:24.178Z,91.78
2022-12-31T08:44:29.566Z,90.98
2022-12-31T08:47:09.442Z,90.06
2022-12-31T08:49:38.970Z,90.36
2022-12-31T08:52:16.480Z,89.63
2022-12-31T08:54:45.644Z,88.75
2022-12-31T08:57:38.627Z,88.35
2022-12-31T09:00:14.006Z,88.05
2022-12-31T09:03:27.320Z,87.76
2022-12-31T09:06:10.533Z,88.01
2022-12-31T09:09:04.021Z,86.95
2022-12-31T09:11:54.011Z,87.01
2022-12-31T09:14:50.226Z,86.76
2022-12-31T09:17:48.842Z,86.99
2022-12-31T09:20:42.443Z,86.43
2022-12-31T09:23:14.206Z,85.47
2022-12-31T09:25:57.793Z,84.81
2022-12-31T09:28:40.624Z,84.42
2022-12-31T09:31:22.003Z,84.60
2022-12-31T09:34:21.812Z,83.36
2022-12-31T09:36:57.689Z,82.88
2022-12-31T09:39:48.826Z,82.35
2022-12-31T09:43:05.426Z,82.17
2022-12-31T09:45:58.142Z,81.58
2022-12-31T09:49:10.316Z,81.85
2022-12-31T09:52:16.251Z,80.79
2022-12-31T09:55:19.228Z,80.39
2022-12-31T09:58:26.090Z,79.70
2022-12-31T10:01:07.405Z,79.52
2022-12-31T10:04:12.759Z,79.07
2022-12-31T10:06:51.465Z,78.67
2022-12-31T10:09:49.035Z,79.99
2022-12-31T10:12:51.453Z,78.11
2022-12-31T10:15:38.752Z,77.62
2022-12-31T10:18:43.722Z,77.64
2022-12-31T10:22:01.565Z,77.28
2022-12-31T10:25:18.430Z,76.84
2022-12-31T10:28:00.547Z,75.74
2022-12-31T10:30:35.289Z,75.30
2022-12-31T10:33:34.337Z,77.99
2022-12-31T10:36:15.651Z,79.61
2022-12-31T10:39:15.426Z,79.75
2022-12-31T10:42:28.669Z,76.03
2022-12-31T10:45:32.079Z,79.04
2022-12-31T10:48:26.002Z,78.25
2022-12-31T10:51:19.451Z,73.78
2022-12-31T10:54:31.522Z,69.62
2022-12-31T10:57:41.023Z,68.69
2022-12-31T11:00:19.150Z,66.36
2022-12-31T11:03:31.016Z,66.97
2022-12-31T11:06:50.706Z,67.67
2022-12-31T11:10:15.309Z,65.71
2022-12-31T11:13:40.153Z,66.73
2022-12-31T11:16:51.295Z,69.39
2022-12-31T11:19:44.232Z,69.70
2022-12-31T11:23:12.394Z,62.79
2022-12-31T11:26:09.624Z,60.22
2022-12-31T11:28:49.883Z,60.36
2022-12-31T11:31:39.795Z,60.07
2022-12-31T11:34:43.679Z,59.18
2022-12-31T11:37:42.661Z,62.87
2022-12-31T11:41:00.545Z,58.67
2022-12-31T11:44:07.006Z,56.58
2022-12-31T11:46:51.603Z,56.71
2022-12-31T11:50:22.047Z,57.21
2022-12-31T11:53:35.090Z,56.75
2022-12-31T11:56:26.335Z,56.20
2022-12-31T11:58:56.781Z,57.34
2022-12-31T12:01:41.853Z,55.90
2022-12-31T12:04:11.850Z,55.10
2022-12-31T12:06:41.406Z,55.91
2022-12-31T12:09:28.151Z,55.32
2022-12-31T12:12:06.021Z,55.25
2022-12-31T12:14:41.725Z,55.53
2022-12-31T12:17:18.366Z,55.99
2022-12-31T12:19:54.897Z,56.12
2022-12-31T12:22:26.993Z,56.17
2022-12-31T12:25:03.208Z,56.73
2022-12-31T12:27:35.860Z,56.06
2022-12-31T12:30:21.923Z,55.07
2022-12-31T12:35:25.352Z,55.25
2022-12-31T12:38:23.272Z,55.11
2022-12-31T12:41:02.350Z,54.93
2022-12-31T12:43:37.660Z,55.74
2022-12-31T12:46:20.828Z,55.33
2022-12-31T12:48:56.499Z,56.42
2022-12-31T12:52:30.574Z,57.73
2022-12-31T12:55:21.563Z,58.64
2022-12-31T12:58:37.280Z,57.98
2022-12-31T13:01:35.084Z,56.71
2022-12-31T13:04:59.766Z,56.17
2022-12-31T13:07:48.079Z,55.54
2022-12-31T13:10:54.100Z,55.81
2022-12-31T13:13:35.215Z,56.31
2022-12-31T13:16:33.496Z,56.78
2022-12-31T13:19:22.608Z,55.07
2022-12-31T13:22:30.423Z,54.58
2022-12-31T13:25:34.242Z,54.44
2022-12-31T13:28:10.490Z,54.10
2022-12-31T13:30:51.136Z,53.91
2022-12-31T13:33:28.473Z,52.41
2022-12-31T13:35:58.190Z,52.94
2022-12-31T13:38:39.033Z,53.03
2022-12-31T13:41:42.590Z,53.36
2022-12-31T13:44:17.177Z,52.67
2022-12-31T13:47:07.202Z,52.12
2022-12-31T13:49:59.496Z,51.96
2022-12-31T13:53:01.376Z,50.59
2022-12-31T13:55:38.689Z,50.73
2022-12-31T13:58:28.190Z,49.20
2022-12-31T14:01:26.287Z,49.51
2022-12-31T14:04:28.770Z,49.73
2022-12-31T14:07:14.060Z,51.42
2022-12-31T14:09:42.993Z,52.94
2022-12-31T14:12:20.862Z,54.27
2022-12-31T14:15:09.392Z,57.68
2022-12-31T14:18:18.744Z,61.73
2022-12-31T14:21:07.508Z,65.58
2022-12-31T14:24:04.267Z,66.62
2022-12-31T14:26:56.059Z,66.57
2022-12-31T14:29:58.656Z,67.54
2022-12-31T14:32:48.422Z,67.83
2022-12-31T14:35:35.195Z,69.27
2022-12-31T14:38:58.246Z,71.97
2022-12-31T14:41:55.354Z,73.86
2022-12-31T14:44:58.158Z,78.38
2022-12-31T14:47:47.273Z,77.47
2022-12-31T14:50:22.735Z,79.33
2022-12-31T14:53:08.231Z,80.58
2022-12-31T14:55:40.893Z,79.63
2022-12-31T14:58:42.733Z,79.89
2022-12-31T15:01:19.293Z,81.86
2022-12-31T15:03:51.779Z,84.31
2022-12-31T15:06:23.434Z,84.77
2022-12-31T15:09:31.871Z,85.11
2022-12-31T15:12:42.012Z,83.71
2022-12-31T15:15:55.277Z,85.17
2022-12-31T15:18:50.672Z,85.89
2022-12-31T15:21:55.534Z,85.07
2022-12-31T15:24:37.719Z,83.35
2022-12-31T15:27:38.854Z,85.30
2022-12-31T15:30:47.481Z,87.73
2022-12-31T15:33:29.308Z,82.63
2022-12-31T15:36:11.007Z,83.21
2022-12-31T15:38:49.881Z,87.92
2022-12-31T15:41:42.912Z,89.22
2022-12-31T15:44:28.935Z,84.08
2022-12-31T15:47:34.945Z,86.41
2022-12-31T15:50:17.672Z,90.23
2022-12-31T15:53:01.093Z,88.65
2022-12-31T15:55:52.428Z,90.92
2022-12-31T15:58:26.653Z,92.29
2022-12-31T16:01:17.810Z,92.29
2022-12-31T16:04:01.835Z,91.31
2022-12-31T16:06:35.936Z,92.31
2022-12-31T16:09:18.952Z,92.47
2022-12-31T16:11:48.280Z,92.89
2022-12-31T16:14:36.777Z,92.85
2022-12-31T16:17:06.974Z,90.69
2022-12-31T16:19:44.871Z,93.38
2022-12-31T16:22:25.659Z,94.63
2022-12-31T16:27:52.039Z,95.93
2022-12-31T16:30:32.335Z,94.40
2022-12-31T16:33:05.966Z,96.14
2022-12-31T16:35:37.146Z,92.86
2022-12-31T16:38:16.045Z,94.20
2022-12-31T16:41:02.286Z,93.10
2022-12-31T16:43:39.702Z,95.50
2022-12-31T16:46:17.320Z,95.52
2022-12-31T16:48:54.621Z,95.98
2022-12-31T16:51:30.151Z,95.27
2022-12-31T16:54:01.853Z,96.10
2022-12-31T16:56:37.326Z,96.05
2022-12-31T16:59:46.035Z,97.08
2022-12-31T17:02:23.357Z,94.91
2022-12-31T17:04:56.343Z,93.49
2022-12-31T17:07:27.833Z,94.57
2022-12-31T17:10:08.808Z,96.57
2022-12-31T17:15:46.949Z,95.48
2022-12-31T17:18:24.600Z,95.09
2022-12-31T17:20:55.766Z,94.74
2022-12-31T17:23:31.965Z,95.67
2022-12-31T17:26:13.392Z,97.86
2022-12-31T17:28:51.990Z,98.20
2022-12-31T17:31:39.839Z,96.53
2022-12-31T17:34:14.569Z,97.75
2022-12-31T17:37:18.852Z,99.61
2022-12-31T17:39:53.849Z,97.99
2022-12-31T17:42:34.066Z,97.74
2022-12-31T17:45:08.908Z,98.73
2022-12-31T17:47:41.590Z,97.59
2022-12-31T17:50:20.631Z,99.46
2022-12-31T17:52:49.792Z,99.99
2022-12-31T17:55:19.041Z,99.99
2022-12-31T17:57:58.440Z,99.60
2022-12-31T18:00:28.031Z,99.93
2022-12-31T18:02:56.896Z,99.87
2022-12-31T18:05:26.517Z,99.25
2022-12-31T18:07:55.346Z,98.81
2022-12-31T18:10:25.749Z,100.00
2022-12-31T18:12:54.605Z,100.00
2022-12-31T18:15:25.212Z,99.82
2022-12-31T18:17:53.969Z,100.00
2022-12-31T18:20:24.143Z,99.51
2022-12-31T18:22:53.059Z,99.79
2022-12-31T18:25:24.835Z,100.00
2022-12-31T18:27:53.631Z,100.00
2022-12-31T18:30:23.585Z,100.00
2022-12-31T18:32:52.581Z,99.76
2022-12-31T18:35:57.762Z,99.93
2022-12-31T18:38:15.485Z,99.74
2022-12-31T18:41:23.775Z,99.93
2022-12-31T18:43:52.976Z,100.00
2022-12-31T18:46:24.938Z,100.00
2022-12-31T18:48:53.819Z,100.00
2022-12-31T18:51:31.392Z,100.00
2022-12-31T18:54:02.123Z,100.00
2022-12-31T18:56:31.744Z,100.00
2022-12-31T18:59:02.742Z,100.00
2022-12-31T19:01:38.696Z,100.00
2022-12-31T19:04:26.569Z,100.00
2022-12-31T19:06:57.202Z,100.00
2022-12-31T19:12:15.477Z,100.00
2022-12-31T19:14:44.319Z,100.00
2022-12-31T19:17:13.166Z,100.00
2022-12-31T19:19:42.006Z,100.00
2022-12-31T19:22:16.011Z,100.00
2022-12-31T19:24:44.887Z,100.00
2022-12-31T19:27:14.036Z,100.00
2022-12-31T19:29:42.828Z,100.00
2022-12-31T19:32:11.692Z,100.00
2022-12-31T19:34:40.645Z,100.00
2022-12-31T19:37:16.012Z,100.00
2022-12-31T19:39:44.800Z,100.00
2022-12-31T19:42:16.340Z,100.00
2022-12-31T19:44:45.173Z,100.00
2022-12-31T19:47:14.256Z,100.00
2022-12-31T19:49:43.015Z,100.00
2022-12-31T19:52:11.794Z,100.00
2022-12-31T19:54:40.684Z,100.00
2022-12-31T19:57:09.462Z,100.00
2022-12-31T19:59:38.242Z,100.00
2022-12-31T20:02:07.614Z,100.00
2022-12-31T20:04:36.667Z,100.00
2022-12-31T20:07:05.362Z,100.00
2022-12-31T20:09:34.233Z,100.00
2022-12-31T20:12:02.955Z,100.00
2022-12-31T20:14:31.880Z,100.00
2022-12-31T20:17:00.690Z,100.00
2022-12-31T20:19:29.604Z,100.00
2022-12-31T20:21:58.448Z,100.00
2022-12-31T20:24:27.286Z,100.00
2022-12-31T20:26:56.057Z,100.00
2022-12-31T20:29:24.895Z,100.00
2022-12-31T20:31:53.691Z,100.00
2022-12-31T20:34:22.608Z,100.00
2022-12-31T20:36:58.164Z,100.00
2022-12-31T20:39:27.034Z,100.00
2022-12-31T20:41:55.941Z,100.00
2022-12-31T20:44:24.741Z,100.00
2022-12-31T20:46:53.505Z,100.00
2022-12-31T20:49:44.251Z,100.00
2022-12-31T20:52:11.223Z,100.00
2022-12-31T20:54:40.069Z,100.00
2022-12-31T20:57:08.808Z,100.00
2022-12-31T20:59:37.596Z,100.00
2022-12-31T21:02:22.861Z,100.00
2022-12-31T21:04:55.332Z,100.00
2022-12-31T21:07:24.631Z,100.00
2022-12-31T21:09:53.351Z,100.00
2022-12-31T21:12:40.455Z,100.00
2022-12-31T21:15:13.802Z,100.00
2022-12-31T21:17:43.164Z,100.00
2022-12-31T21:20:13.228Z,100.00
2022-12-31T21:22:41.943Z,100.00
2022-12-31T21:25:11.136Z,100.00
2022-12-31T21:27:39.904Z,100.00
2022-12-31T21:30:18.961Z,100.00
2022-12-31T21:32:48.776Z,100.00
2022-12-31T21:38:07.994Z,100.00
2022-12-31T21:40:39.489Z,100.00
2022-12-31T21:43:10.784Z,100.00
2022-12-31T21:45:39.913Z,100.00
2022-12-31T21:48:20.740Z,100.00
2022-12-31T21:51:05.195Z,100.00
2022-12-31T21:53:36.881Z,100.00
2022-12-31T21:56:11.682Z,100.00
2022-12-31T21:58:44.429Z,100.00
2022-12-31T22:01:40.313Z,100.00
2022-12-31T22:04:28.221Z,100.00
2022-12-31T22:06:58.384Z,100.00
2022-12-31T22:09:27.193Z,100.00
2022-12-31T22:11:55.960Z,100.00
2022-12-31T22:14:24.763Z,100.00
2022-12-31T22:16:53.574Z,100.00
2022-12-31T22:19:22.427Z,100.00
2022-12-31T22:21:51.267Z,100.00
2022-12-31T22:24:19.973Z,100.00
2022-12-31T22:26:48.819Z,100.00
2022-12-31T22:29:19.456Z,100.00
2022-12-31T22:31:48.239Z,100.00
2022-12-31T22:34:17.079Z,100.00
2022-12-31T22:36:45.889Z,100.00
2022-12-31T22:39:43.334Z,100.00
2022-12-31T22:42:05.147Z,100.00
2022-12-31T22:44:33.979Z,100.00
2022-12-31T22:47:02.748Z,100.00
2022-12-31T22:49:31.518Z,100.00
2022-12-31T22:52:04.218Z,100.00
2022-12-31T22:54:36.003Z,100.00
2022-12-31T22:57:05.189Z,100.00
2022-12-31T22:59:33.971Z,100.00
2022-12-31T23:02:02.808Z,100.00
2022-12-31T23:04:31.949Z,100.00
2022-12-31T23:07:01.181Z,100.00
2022-12-31T23:09:48.327Z,100.00
2022-12-31T23:12:17.111Z,100.00
2022-12-31T23:15:04.522Z,100.00
2022-12-31T23:17:51.603Z,100.00
2022-12-31T23:20:43.258Z,100.00
2022-12-31T23:23:16.252Z,100.00
2022-12-31T23:25:49.805Z,100.00
2022-12-31T23:28:27.590Z,100.00
2022-12-31T23:30:56.540Z,100.00
2022-12-31T23:33:26.519Z,100.00
2022-12-31T23:36:08.492Z,100.00
2022-12-31T23:38:37.233Z,100.00
2022-12-31T23:41:19.215Z,100.00
2022-12-31T23:43:48.497Z,100.00
2022-12-31T23:46:17.659Z,100.00
2022-12-31T23:48:46.416Z,100.00
2022-12-31T23:51:15.305Z,100.00
2022-12-31T23:53:44.129Z,100.00
2022-12-31T23:56:23.333Z,100.00
2022-12-31T23:58:58.091Z,100.00
